Time;durP1;ratioP1;P1;durP2;ratioP2;P2;SDS_P1;SDS_P2;PMS_P1;PMS_P2;Temp;Humidity;BMP_temperature;BMP_pressure;BME280_temperature;BME280_humidity;BME280_pressure;Samples;Min_cycle;Max_cycle;Signal;HPM_P1;HPM_P2
2023/03/29 00:02:29;;;;;;;12.07;6.80;;;;;;;;;;5093646;28;20584;-83
2023/03/29 00:05:03;;;;;;;10.70;6.33;;;;;;;;;;5090787;28;20190;-83
2023/03/29 00:07:32;;;;;;;10.93;6.47;;;;;;;;;;5093666;28;20220;-82
2023/03/29 00:09:58;;;;;;;12.67;7.27;;;;;;;;;;5093691;28;20175;-82
2023/03/29 00:12:25;;;;;;;11.83;7.13;;;;;;;;;;5109586;28;20573;-83
2023/03/29 00:14:51;;;;;;;11.27;6.90;;;;;;;;;;5093543;28;20197;-83
2023/03/29 00:17:17;;;;;;;9.77;6.30;;;;;;;;;;5089307;28;20677;-83
2023/03/29 00:19:46;;;;;;;12.70;6.80;;;;;;;;;;5093594;28;20189;-83
2023/03/29 00:22:12;;;;;;;9.93;6.83;;;;;;;;;;5091508;28;20212;-83
2023/03/29 00:24:38;;;;;;;13.33;7.30;;;;;;;;;;5108950;28;20174;-82
2023/03/29 00:27:04;;;;;;;13.33;7.67;;;;;;;;;;5088867;28;20206;-83
2023/03/29 00:29:30;;;;;;;10.07;7.07;;;;;;;;;;5093160;28;20219;-81
2023/03/29 00:31:56;;;;;;;10.57;7.23;;;;;;;;;;5090225;28;20703;-82
2023/03/29 00:34:22;;;;;;;9.40;6.60;;;;;;;;;;5092184;28;20186;-83
2023/03/29 00:36:49;;;;;;;12.83;7.20;;;;;;;;;;5085953;28;20179;-81
2023/03/29 00:39:16;;;;;;;12.37;7.10;;;;;;;;;;5093608;28;20186;-82
2023/03/29 00:41:44;;;;;;;11.10;7.17;;;;;;;;;;5092641;28;20178;-83
2023/03/29 00:44:30;;;;;;;14.47;6.70;;;;;;;;;;5093614;28;20176;-83
2023/03/29 00:46:56;;;;;;;11.37;6.97;;;;;;;;;;5107173;28;20210;-82
2023/03/29 00:49:22;;;;;;;13.67;7.00;;;;;;;;;;5109385;28;20180;-82
2023/03/29 00:51:48;;;;;;;10.13;6.87;;;;;;;;;;5084098;28;20594;-83
2023/03/29 00:54:17;;;;;;;12.97;7.03;;;;;;;;;;5091542;28;20640;-82
2023/03/29 00:56:44;;;;;;;14.17;7.37;;;;;;;;;;5092986;28;20194;-83
2023/03/29 00:59:17;;;;;;;14.73;8.07;;;;;;;;;;5086701;28;20728;-82
2023/03/29 01:01:46;;;;;;;17.33;8.27;;;;;;;;;;5091550;28;20195;-81
2023/03/29 01:04:28;;;;;;;19.73;9.00;;;;;;;;;;5093009;28;20724;-83
2023/03/29 01:07:20;;;;;;;16.30;9.20;;;;;;;;;;5089352;28;20205;-83
2023/03/29 01:09:48;;;;;;;15.77;8.90;;;;;;;;;;5100163;28;20198;-81
2023/03/29 01:12:20;;;;;;;17.77;10.90;;;;;;;;;;5093633;28;20201;-83
2023/03/29 01:14:55;;;;;;;13.87;9.07;;;;;;;;;;5114884;28;20197;-82
2023/03/29 01:17:24;;;;;;;17.33;9.87;;;;;;;;;;5087635;28;20267;-82
2023/03/29 01:19:59;;;;;;;17.20;10.07;;;;;;;;;;5094018;28;20222;-82
2023/03/29 01:22:38;;;;;;;16.77;10.03;;;;;;;;;;5096051;28;20373;-82
2023/03/29 01:25:15;;;;;;;19.53;9.90;;;;;;;;;;5111381;28;20185;-83
2023/03/29 01:27:54;;;;;;;14.40;9.83;;;;;;;;;;5093772;28;20257;-82
2023/03/29 01:30:40;;;;;;;17.90;10.23;;;;;;;;;;5095080;28;20449;-81
2023/03/29 01:33:20;;;;;;;13.17;9.27;;;;;;;;;;5110586;28;20205;-83
2023/03/29 01:35:56;;;;;;;13.53;9.73;;;;;;;;;;5095578;28;20197;-82
2023/03/29 01:38:26;;;;;;;19.87;10.23;;;;;;;;;;5096701;28;20577;-83
2023/03/29 01:40:52;;;;;;;16.70;10.67;;;;;;;;;;5093567;28;20184;-83
2023/03/29 01:43:18;;;;;;;14.90;10.33;;;;;;;;;;5096270;28;20318;-82
2023/03/29 01:45:51;;;;;;;16.83;10.37;;;;;;;;;;5096905;28;20202;-83
2023/03/29 01:48:28;;;;;;;16.40;10.87;;;;;;;;;;5096862;28;20194;-83
2023/03/29 01:51:02;;;;;;;19.77;10.77;;;;;;;;;;5091001;28;20273;-81
2023/03/29 01:53:54;;;;;;;15.77;10.57;;;;;;;;;;5091228;28;20548;-83
2023/03/29 01:56:22;;;;;;;15.80;10.23;;;;;;;;;;5097688;28;20202;-83
2023/03/29 01:58:53;;;;;;;17.57;10.93;;;;;;;;;;5086561;28;20230;-83
2023/03/29 02:01:21;;;;;;;14.70;10.30;;;;;;;;;;5094892;28;20221;-81
2023/03/29 02:03:49;;;;;;;14.50;10.47;;;;;;;;;;5077110;28;20212;-83
2023/03/29 02:06:19;;;;;;;15.80;10.57;;;;;;;;;;5110455;28;21018;-82
2023/03/29 02:08:46;;;;;;;14.90;10.23;;;;;;;;;;5093377;28;20689;-82
2023/03/29 02:11:12;;;;;;;17.63;10.20;;;;;;;;;;5093592;28;20229;-82
2023/03/29 02:13:38;;;;;;;13.07;10.07;;;;;;;;;;5094551;28;20190;-82
2023/03/29 02:16:10;;;;;;;19.10;9.90;;;;;;;;;;5089450;28;20183;-83
2023/03/29 02:18:37;;;;;;;18.13;9.20;;;;;;;;;;5096041;28;20189;-83
2023/03/29 02:21:03;;;;;;;12.57;8.20;;;;;;;;;;5095826;28;20538;-82
2023/03/29 02:23:35;;;;;;;14.17;9.97;;;;;;;;;;5112028;28;20310;-82
2023/03/29 02:26:02;;;;;;;18.03;10.87;;;;;;;;;;5094933;28;20754;-84
2023/03/29 02:28:29;;;;;;;14.67;9.87;;;;;;;;;;5093643;28;20274;-81
2023/03/29 02:31:07;;;;;;;19.53;11.37;;;;;;;;;;5113573;28;20244;-83
2023/03/29 02:33:50;;;;;;;17.87;12.37;;;;;;;;;;5095786;28;20183;-83
2023/03/29 02:36:16;;;;;;;22.73;13.47;;;;;;;;;;5096121;28;20225;-81
2023/03/29 02:38:43;;;;;;;18.97;12.77;;;;;;;;;;5107347;28;20558;-84
2023/03/29 02:41:11;;;;;;;25.63;13.67;;;;;;;;;;5083849;28;20589;-83
2023/03/29 02:43:39;;;;;;;22.27;15.00;;;;;;;;;;5091606;28;20713;-81
2023/03/29 02:46:06;;;;;;;21.57;13.40;;;;;;;;;;5114361;28;20200;-81
2023/03/29 02:48:33;;;;;;;17.97;12.27;;;;;;;;;;5111526;28;20194;-82
2023/03/29 02:51:01;;;;;;;17.60;10.53;;;;;;;;;;5109673;28;20287;-83
2023/03/29 02:53:30;;;;;;;14.37;9.57;;;;;;;;;;5092552;28;20186;-83
2023/03/29 02:55:56;;;;;;;15.90;8.97;;;;;;;;;;5095022;28;20210;-82
2023/03/29 02:58:25;;;;;;;15.00;8.60;;;;;;;;;;5111851;28;20195;-82
2023/03/29 03:00:51;;;;;;;20.33;9.20;;;;;;;;;;5094258;28;20185;-84
2023/03/29 03:03:17;;;;;;;13.80;8.33;;;;;;;;;;5093393;28;20193;-82
2023/03/29 03:05:43;;;;;;;16.40;9.00;;;;;;;;;;5094381;28;20209;-82
2023/03/29 03:08:09;;;;;;;17.00;9.37;;;;;;;;;;5095871;28;20234;-83
2023/03/29 03:10:36;;;;;;;18.90;10.70;;;;;;;;;;5092124;28;20663;-83
2023/03/29 03:13:02;;;;;;;21.17;11.70;;;;;;;;;;5076219;28;20236;-84
2023/03/29 03:15:29;;;;;;;26.37;12.33;;;;;;;;;;5108389;28;20642;-81
2023/03/29 03:17:55;;;;;;;22.33;12.17;;;;;;;;;;5094832;28;20269;-82
2023/03/29 03:20:22;;;;;;;25.30;12.67;;;;;;;;;;5109717;28;20267;-83
2023/03/29 03:22:48;;;;;;;23.83;12.60;;;;;;;;;;5091440;28;20234;-82
2023/03/29 03:25:15;;;;;;;19.83;12.70;;;;;;;;;;5096327;28;20174;-84
2023/03/29 03:27:42;;;;;;;24.47;14.07;;;;;;;;;;5094045;28;20216;-82
2023/03/29 03:30:08;;;;;;;23.43;14.40;;;;;;;;;;5094381;28;20193;-84
2023/03/29 03:32:35;;;;;;;20.97;13.13;;;;;;;;;;5094751;28;20189;-83
2023/03/29 03:35:01;;;;;;;22.53;13.40;;;;;;;;;;5092833;28;20627;-84
2023/03/29 03:37:27;;;;;;;18.57;11.90;;;;;;;;;;5092469;28;20223;-83
2023/03/29 03:39:53;;;;;;;21.17;12.50;;;;;;;;;;5112979;28;20201;-83
2023/03/29 03:42:20;;;;;;;18.90;11.07;;;;;;;;;;5086673;28;20261;-83
2023/03/29 03:44:46;;;;;;;15.63;10.87;;;;;;;;;;5110296;28;20229;-82
2023/03/29 03:47:13;;;;;;;16.27;10.37;;;;;;;;;;5086445;28;20202;-84
2023/03/29 03:49:39;;;;;;;17.53;9.83;;;;;;;;;;5075296;28;20184;-84
2023/03/29 03:52:06;;;;;;;18.73;10.97;;;;;;;;;;5075741;28;20169;-83
2023/03/29 03:54:35;;;;;;;21.27;10.77;;;;;;;;;;5092432;28;20190;-82
2023/03/29 03:57:02;;;;;;;18.00;11.77;;;;;;;;;;5108598;28;20748;-83
2023/03/29 03:59:28;;;;;;;20.23;9.63;;;;;;;;;;5109382;28;20165;-82
2023/03/29 04:01:54;;;;;;;13.77;8.80;;;;;;;;;;5091985;28;20266;-84
2023/03/29 04:04:22;;;;;;;18.23;10.90;;;;;;;;;;5094697;28;20206;-83
2023/03/29 04:06:49;;;;;;;19.53;11.30;;;;;;;;;;5088958;28;20548;-82
2023/03/29 04:09:15;;;;;;;16.13;9.43;;;;;;;;;;5104008;28;20200;-82
2023/03/29 04:11:41;;;;;;;18.83;10.43;;;;;;;;;;5111020;28;20729;-82
2023/03/29 04:14:08;;;;;;;16.30;9.97;;;;;;;;;;5112967;28;20179;-84
2023/03/29 04:16:34;;;;;;;15.20;9.40;;;;;;;;;;5109591;28;20168;-81
2023/03/29 04:19:00;;;;;;;14.57;8.63;;;;;;;;;;5099697;28;20173;-83
2023/03/29 04:21:26;;;;;;;17.23;9.73;;;;;;;;;;5076830;28;20252;-81
2023/03/29 04:23:52;;;;;;;18.07;9.33;;;;;;;;;;5078858;28;20267;-81
2023/03/29 04:26:18;;;;;;;15.57;8.87;;;;;;;;;;5089994;28;20206;-82
2023/03/29 04:28:45;;;;;;;14.50;8.40;;;;;;;;;;5084973;28;20185;-83
2023/03/29 04:31:11;;;;;;;18.77;9.23;;;;;;;;;;5108089;28;20187;-82
2023/03/29 04:33:38;;;;;;;15.17;8.63;;;;;;;;;;5094748;28;20186;-81
2023/03/29 04:36:04;;;;;;;17.67;9.20;;;;;;;;;;5104971;28;20186;-82
2023/03/29 04:38:30;;;;;;;16.93;8.17;;;;;;;;;;5088746;28;20191;-81
2023/03/29 04:41:00;;;;;;;17.00;9.13;;;;;;;;;;5088337;28;20646;-81
2023/03/29 04:43:26;;;;;;;17.50;8.43;;;;;;;;;;5121473;28;20189;-82
2023/03/29 04:45:52;;;;;;;18.90;9.13;;;;;;;;;;5108750;28;20189;-82
2023/03/29 04:48:19;;;;;;;21.03;9.30;;;;;;;;;;5129296;28;20178;-81
2023/03/29 04:50:46;;;;;;;15.87;8.70;;;;;;;;;;5114252;28;20183;-82
2023/03/29 04:53:12;;;;;;;16.47;8.67;;;;;;;;;;5109403;28;20180;-82
2023/03/29 04:55:38;;;;;;;16.03;8.97;;;;;;;;;;5112913;28;20165;-82
2023/03/29 04:58:04;;;;;;;16.60;8.43;;;;;;;;;;5087293;28;20168;-81
2023/03/29 05:00:30;;;;;;;13.67;8.67;;;;;;;;;;5108021;28;20283;-81
2023/03/29 05:02:56;;;;;;;15.30;8.00;;;;;;;;;;5111382;28;20193;-81
2023/03/29 05:05:23;;;;;;;16.67;9.10;;;;;;;;;;5096566;28;20580;-81
2023/03/29 05:07:49;;;;;;;13.87;8.80;;;;;;;;;;5094746;28;20242;-81
2023/03/29 05:10:15;;;;;;;17.27;9.80;;;;;;;;;;5090139;28;20520;-82
2023/03/29 05:12:41;;;;;;;22.53;11.00;;;;;;;;;;5091898;28;20282;-83
2023/03/29 05:15:08;;;;;;;17.20;10.20;;;;;;;;;;5096377;28;20185;-83
2023/03/29 05:17:34;;;;;;;21.50;9.60;;;;;;;;;;5111780;28;20180;-83
2023/03/29 05:20:00;;;;;;;18.07;10.00;;;;;;;;;;5114288;28;20543;-81
2023/03/29 05:22:27;;;;;;;18.83;9.30;;;;;;;;;;5115918;28;20230;-82
2023/03/29 05:24:53;;;;;;;18.87;9.97;;;;;;;;;;5112843;27;20193;-82
2023/03/29 05:27:21;;;;;;;18.47;9.47;;;;;;;;;;5095780;28;20210;-81
2023/03/29 05:29:48;;;;;;;17.97;9.83;;;;;;;;;;5095997;28;20186;-83
2023/03/29 05:32:14;;;;;;;16.63;8.57;;;;;;;;;;5096528;28;20183;-82
2023/03/29 05:34:40;;;;;;;19.43;9.90;;;;;;;;;;5078696;28;20640;-80
2023/03/29 05:37:06;;;;;;;22.03;9.00;;;;;;;;;;5092322;28;20175;-82
2023/03/29 05:39:32;;;;;;;19.93;8.60;;;;;;;;;;5112962;28;20202;-82
2023/03/29 05:41:59;;;;;;;20.53;9.30;;;;;;;;;;5093700;28;20282;-81
2023/03/29 05:44:24;;;;;;;21.63;9.77;;;;;;;;;;5095895;28;20182;-82
2023/03/29 05:46:51;;;;;;;22.00;9.60;;;;;;;;;;5094331;28;20214;-82
2023/03/29 05:49:17;;;;;;;20.67;9.00;;;;;;;;;;5095746;28;20267;-82
2023/03/29 05:51:44;;;;;;;18.10;9.90;;;;;;;;;;5090844;28;20215;-82
2023/03/29 05:54:11;;;;;;;24.17;10.17;;;;;;;;;;5092276;28;20175;-82
2023/03/29 05:56:37;;;;;;;12.47;9.47;;;;;;;;;;5092279;28;20274;-82
2023/03/29 05:59:03;;;;;;;27.47;10.23;;;;;;;;;;5082909;28;20183;-82
2023/03/29 06:01:29;;;;;;;23.70;10.57;;;;;;;;;;5096460;28;20692;-83
2023/03/29 06:03:56;;;;;;;20.60;13.03;;;;;;;;;;5092980;28;20213;-82
2023/03/29 06:06:22;;;;;;;18.57;9.63;;;;;;;;;;5110959;28;20207;-83
2023/03/29 06:08:49;;;;;;;22.77;10.67;;;;;;;;;;5095329;28;21129;-83
2023/03/29 06:11:16;;;;;;;17.23;9.40;;;;;;;;;;5110535;28;20271;-82
2023/03/29 06:13:42;;;;;;;21.50;9.53;;;;;;;;;;5095310;28;20609;-82
2023/03/29 06:16:10;;;;;;;20.60;9.93;;;;;;;;;;5096645;28;20587;-82
2023/03/29 06:18:38;;;;;;;20.23;9.97;;;;;;;;;;5095672;28;20207;-83
2023/03/29 06:21:06;;;;;;;19.67;10.83;;;;;;;;;;5109306;28;20644;-83
2023/03/29 06:23:32;;;;;;;14.67;9.93;;;;;;;;;;5109391;28;20211;-82
2023/03/29 06:25:58;;;;;;;18.70;9.97;;;;;;;;;;5094032;28;20235;-82
2023/03/29 06:28:25;;;;;;;17.80;9.53;;;;;;;;;;5081439;28;20183;-83
2023/03/29 06:30:54;;;;;;;15.23;9.00;;;;;;;;;;5092187;28;20650;-83
2023/03/29 06:33:21;;;;;;;15.17;9.23;;;;;;;;;;5095282;28;20183;-83
2023/03/29 06:35:48;;;;;;;23.13;9.30;;;;;;;;;;5111426;28;20205;-83
2023/03/29 06:38:14;;;;;;;15.27;9.07;;;;;;;;;;5095269;28;20186;-84
2023/03/29 06:40:41;;;;;;;16.53;9.00;;;;;;;;;;5112259;28;20327;-82
2023/03/29 06:43:08;;;;;;;14.77;9.80;;;;;;;;;;5095687;28;20269;-83
2023/03/29 06:45:35;;;;;;;20.03;10.00;;;;;;;;;;5094677;28;20640;-82
2023/03/29 06:48:02;;;;;;;15.87;9.00;;;;;;;;;;5094935;28;20584;-82
2023/03/29 06:50:28;;;;;;;17.70;8.83;;;;;;;;;;5093704;28;20213;-83
2023/03/29 06:52:54;;;;;;;17.10;8.93;;;;;;;;;;5091873;28;20261;-82
2023/03/29 06:55:21;;;;;;;13.23;9.07;;;;;;;;;;5076596;28;20200;-82
2023/03/29 06:57:47;;;;;;;14.43;8.47;;;;;;;;;;5102897;28;20189;-83
2023/03/29 07:00:18;;;;;;;11.83;7.77;;;;;;;;;;5106126;28;20638;-83
2023/03/29 07:02:48;;;;;;;13.03;8.43;;;;;;;;;;5094654;28;20232;-82
2023/03/29 07:05:15;;;;;;;14.30;8.33;;;;;;;;;;5110909;28;20224;-83
2023/03/29 07:10:20;;;;;;;15.47;8.87;;;;;;;;;;5111781;28;20274;-83
2023/03/29 07:12:47;;;;;;;16.93;8.43;;;;;;;;;;5091050;28;20194;-82
2023/03/29 07:15:13;;;;;;;15.37;8.03;;;;;;;;;;5094491;28;20179;-82
2023/03/29 07:17:39;;;;;;;13.30;7.30;;;;;;;;;;5094133;28;20690;-83
2023/03/29 07:20:12;;;;;;;15.60;8.50;;;;;;;;;;5092333;28;20629;-83
2023/03/29 07:22:38;;;;;;;12.20;7.77;;;;;;;;;;5109086;28;20220;-82
2023/03/29 07:25:07;;;;;;;21.37;8.80;;;;;;;;;;5092935;28;20180;-83
2023/03/29 07:27:33;;;;;;;16.27;7.27;;;;;;;;;;5093588;28;20211;-83
2023/03/29 07:29:59;;;;;;;19.40;8.50;;;;;;;;;;5094276;28;20192;-82
2023/03/29 07:32:26;;;;;;;13.10;7.37;;;;;;;;;;5093077;28;20272;-82
2023/03/29 07:34:52;;;;;;;11.90;7.33;;;;;;;;;;5091969;28;20516;-82
2023/03/29 07:37:19;;;;;;;18.47;7.97;;;;;;;;;;5090425;28;20221;-83
2023/03/29 07:39:45;;;;;;;15.47;7.57;;;;;;;;;;5093393;28;20590;-83
2023/03/29 07:42:11;;;;;;;13.07;7.00;;;;;;;;;;5092964;28;20179;-83
2023/03/29 07:44:37;;;;;;;11.27;6.83;;;;;;;;;;5090529;28;20212;-82
2023/03/29 07:47:04;;;;;;;14.10;6.80;;;;;;;;;;5091454;28;20578;-83
2023/03/29 07:49:30;;;;;;;14.23;8.03;;;;;;;;;;5090205;28;20584;-83
2023/03/29 07:51:56;;;;;;;15.60;7.10;;;;;;;;;;5090717;28;20647;-83
2023/03/29 07:54:22;;;;;;;9.97;7.53;;;;;;;;;;5091936;28;20267;-83
2023/03/29 07:56:48;;;;;;;13.13;7.60;;;;;;;;;;5093237;28;20183;-83
2023/03/29 07:59:15;;;;;;;12.47;7.60;;;;;;;;;;5079589;28;20605;-82
2023/03/29 08:01:41;;;;;;;12.40;7.30;;;;;;;;;;5093548;28;20216;-83
2023/03/29 08:04:08;;;;;;;13.70;6.73;;;;;;;;;;5109676;28;20172;-83
2023/03/29 08:06:34;;;;;;;11.10;5.97;;;;;;;;;;5092574;28;20212;-82
2023/03/29 08:09:00;;;;;;;13.13;6.97;;;;;;;;;;5093164;28;20278;-83
2023/03/29 08:11:26;;;;;;;12.87;6.80;;;;;;;;;;5107187;28;20263;-84
2023/03/29 08:13:52;;;;;;;11.20;6.30;;;;;;;;;;5093274;28;20187;-85
2023/03/29 08:16:18;;;;;;;10.60;5.33;;;;;;;;;;5095404;28;20179;-84
2023/03/29 08:18:44;;;;;;;9.70;5.20;;;;;;;;;;5098421;28;20237;-84
2023/03/29 08:21:13;;;;;;;10.97;5.37;;;;;;;;;;5118876;28;20198;-84
2023/03/29 08:23:39;;;;;;;7.13;4.83;;;;;;;;;;5120306;28;20207;-85
2023/03/29 08:26:07;;;;;;;8.97;5.03;;;;;;;;;;5097032;28;20240;-84
2023/03/29 08:28:33;;;;;;;9.77;5.00;;;;;;;;;;5094671;28;20182;-85
2023/03/29 08:30:59;;;;;;;9.73;5.10;;;;;;;;;;5097303;28;20218;-84
2023/03/29 08:33:25;;;;;;;11.73;5.30;;;;;;;;;;5097931;28;20183;-83
2023/03/29 08:35:51;;;;;;;10.10;6.13;;;;;;;;;;5113135;28;20187;-85
2023/03/29 08:38:18;;;;;;;8.97;5.40;;;;;;;;;;5095973;28;20186;-85
2023/03/29 08:40:47;;;;;;;7.93;4.63;;;;;;;;;;5098073;28;20193;-85
2023/03/29 08:43:19;;;;;;;7.10;4.43;;;;;;;;;;5108160;28;20648;-85
2023/03/29 08:45:50;;;;;;;8.87;4.83;;;;;;;;;;5114415;28;20198;-84
2023/03/29 08:48:17;;;;;;;7.67;4.67;;;;;;;;;;5098396;28;20191;-85
2023/03/29 08:50:51;;;;;;;5.23;3.67;;;;;;;;;;5094787;28;20657;-85
2023/03/29 08:53:20;;;;;;;10.40;4.80;;;;;;;;;;5080367;28;20191;-85
2023/03/29 08:55:47;;;;;;;10.70;4.47;;;;;;;;;;5088970;28;20246;-83
2023/03/29 08:58:18;;;;;;;5.50;3.93;;;;;;;;;;5089932;28;20626;-83
2023/03/29 09:00:49;;;;;;;7.13;3.97;;;;;;;;;;5111340;28;20184;-85
2023/03/29 09:03:18;;;;;;;5.83;3.03;;;;;;;;;;5094947;28;20206;-84
2023/03/29 09:05:46;;;;;;;5.57;3.30;;;;;;;;;;5111939;28;20669;-83
2023/03/29 09:08:14;;;;;;;5.50;3.97;;;;;;;;;;5112925;28;20184;-84
2023/03/29 09:10:43;;;;;;;5.13;3.30;;;;;;;;;;5116035;28;20175;-84
2023/03/29 09:13:23;;;;;;;5.07;3.33;;;;;;;;;;5089391;28;20179;-84
2023/03/29 09:15:52;;;;;;;6.13;3.00;;;;;;;;;;5096375;28;20270;-84
2023/03/29 09:18:18;;;;;;;5.53;3.53;;;;;;;;;;5096671;28;20181;-84
2023/03/29 09:20:44;;;;;;;5.27;3.10;;;;;;;;;;5096871;28;20687;-84
2023/03/29 09:23:29;;;;;;;4.20;2.60;;;;;;;;;;5095952;28;20292;-84
2023/03/29 09:26:10;;;;;;;3.43;2.53;;;;;;;;;;5092500;28;20633;-83
2023/03/29 09:28:39;;;;;;;3.93;2.60;;;;;;;;;;5092875;28;20175;-84
2023/03/29 09:31:06;;;;;;;4.17;2.47;;;;;;;;;;5096679;28;20191;-84
2023/03/29 09:33:44;;;;;;;4.20;2.77;;;;;;;;;;5095830;28;20180;-84
2023/03/29 09:36:13;;;;;;;2.53;2.20;;;;;;;;;;5096066;28;20217;-83
2023/03/29 09:38:41;;;;;;;3.63;2.20;;;;;;;;;;5096570;28;20180;-84
2023/03/29 09:41:13;;;;;;;5.80;2.60;;;;;;;;;;5094130;28;20195;-85
2023/03/29 09:43:41;;;;;;;3.90;2.60;;;;;;;;;;5096091;28;20168;-84
2023/03/29 09:46:14;;;;;;;8.07;3.10;;;;;;;;;;5096018;28;20212;-84
2023/03/29 09:48:41;;;;;;;4.83;2.90;;;;;;;;;;5095897;28;20653;-84
2023/03/29 09:51:08;;;;;;;4.97;2.73;;;;;;;;;;5090237;28;20176;-84
2023/03/29 09:53:34;;;;;;;7.00;3.23;;;;;;;;;;5090498;28;20188;-83
2023/03/29 09:56:01;;;;;;;4.73;3.20;;;;;;;;;;5095262;28;20180;-84
2023/03/29 09:58:29;;;;;;;5.20;3.07;;;;;;;;;;5095978;28;20183;-83
2023/03/29 10:00:59;;;;;;;5.20;3.40;;;;;;;;;;5092489;28;20183;-84
2023/03/29 10:03:28;;;;;;;9.03;3.60;;;;;;;;;;5095862;28;20192;-84
2023/03/29 10:05:55;;;;;;;6.57;3.33;;;;;;;;;;5095703;28;20191;-84
2023/03/29 10:08:26;;;;;;;6.03;3.63;;;;;;;;;;5093322;28;20196;-83
2023/03/29 10:10:52;;;;;;;6.60;3.37;;;;;;;;;;5113439;28;20533;-84
2023/03/29 10:13:21;;;;;;;4.03;3.00;;;;;;;;;;5093670;28;20178;-84
2023/03/29 10:16:17;;;;;;;4.70;3.20;;;;;;;;;;5094213;28;20179;-84
2023/03/29 10:18:43;;;;;;;4.33;3.30;;;;;;;;;;5030884;28;20233;-84
2023/03/29 10:21:12;;;;;;;15.00;4.63;;;;;;;;;;5014078;28;20219;-84
2023/03/29 10:23:38;;;;;;;6.97;4.10;;;;;;;;;;5030690;28;20300;-84
2023/03/29 10:26:06;;;;;;;4.53;3.60;;;;;;;;;;5031605;28;20205;-84
2023/03/29 10:28:34;;;;;;;5.30;3.50;;;;;;;;;;5016294;28;20194;-84
2023/03/29 10:31:02;;;;;;;4.27;3.00;;;;;;;;;;5014231;28;20186;-84
2023/03/29 10:33:30;;;;;;;5.37;3.20;;;;;;;;;;5030675;28;20190;-84
2023/03/29 10:35:57;;;;;;;6.10;3.40;;;;;;;;;;5013892;28;20663;-85
2023/03/29 10:38:24;;;;;;;7.30;4.77;;;;;;;;;;5030224;28;20186;-84
2023/03/29 10:40:52;;;;;;;12.50;7.60;;;;;;;;;;5041938;28;20178;-84
2023/03/29 10:43:31;;;;;;;5.07;3.13;;;;;;;;;;5013093;28;20206;-84
2023/03/29 10:46:05;;;;;;;6.87;3.13;;;;;;;;;;5027671;28;20655;-84
2023/03/29 10:48:34;;;;;;;6.57;3.47;;;;;;;;;;5014442;28;20680;-85
2023/03/29 10:51:01;;;;;;;5.07;3.20;;;;;;;;;;5013296;28;20182;-84
2023/03/29 10:53:28;;;;;;;4.30;2.83;;;;;;;;;;5025108;28;20179;-84
2023/03/29 10:56:13;;;;;;;3.43;2.87;;;;;;;;;;5084160;28;20195;-84
2023/03/29 10:58:58;;;;;;;9.10;2.97;;;;;;;;;;5079470;28;20168;-85
2023/03/29 11:01:33;;;;;;;3.20;2.73;;;;;;;;;;5094636;28;20645;-83
2023/03/29 11:04:18;;;;;;;4.93;3.23;;;;;;;;;;5109491;28;20583;-84
2023/03/29 11:06:44;;;;;;;4.20;2.93;;;;;;;;;;5109875;28;20263;-84
2023/03/29 11:09:18;;;;;;;5.90;2.93;;;;;;;;;;5094171;28;20184;-84
2023/03/29 11:11:54;;;;;;;4.57;3.13;;;;;;;;;;5084741;28;20191;-84
2023/03/29 11:14:45;;;;;;;3.97;3.30;;;;;;;;;;5077412;28;20535;-85
2023/03/29 11:17:26;;;;;;;3.77;3.00;;;;;;;;;;5092146;28;20182;-85
2023/03/29 11:19:52;;;;;;;6.13;3.50;;;;;;;;;;5091403;28;20176;-85
2023/03/29 11:22:38;;;;;;;5.83;3.90;;;;;;;;;;5079003;28;20228;-85
2023/03/29 11:25:14;;;;;;;4.20;3.13;;;;;;;;;;5085022;28;20231;-85
2023/03/29 11:27:40;;;;;;;4.60;3.23;;;;;;;;;;5107963;28;20214;-85
2023/03/29 11:30:18;;;;;;;6.73;3.03;;;;;;;;;;5105674;28;20565;-84
2023/03/29 11:32:47;;;;;;;8.77;3.33;;;;;;;;;;5079370;28;20183;-85
2023/03/29 11:35:22;;;;;;;4.67;3.37;;;;;;;;;;5093236;28;20308;-85
2023/03/29 11:37:59;;;;;;;4.73;3.00;;;;;;;;;;5108980;28;20205;-85
2023/03/29 11:40:34;;;;;;;3.70;2.87;;;;;;;;;;5102298;28;20207;-83
2023/03/29 11:43:01;;;;;;;2.97;2.40;;;;;;;;;;5097709;28;20172;-84
2023/03/29 11:45:39;;;;;;;4.20;3.27;;;;;;;;;;5084693;28;20523;-84
2023/03/29 11:48:06;;;;;;;3.13;2.83;;;;;;;;;;5093733;28;20212;-85
2023/03/29 11:50:42;;;;;;;4.30;3.30;;;;;;;;;;5093688;28;20194;-84
2023/03/29 11:53:11;;;;;;;4.63;3.37;;;;;;;;;;5092698;28;20163;-84
2023/03/29 11:55:38;;;;;;;4.00;3.00;;;;;;;;;;5117815;28;20625;-84
2023/03/29 11:58:04;;;;;;;5.33;3.67;;;;;;;;;;5117820;28;20217;-83
2023/03/29 12:00:36;;;;;;;5.80;3.33;;;;;;;;;;5100812;28;20187;-84
2023/03/29 12:03:05;;;;;;;3.93;3.30;;;;;;;;;;5101925;28;20188;-83
2023/03/29 12:05:33;;;;;;;7.80;3.70;;;;;;;;;;5119661;28;20183;-84
2023/03/29 12:08:03;;;;;;;6.53;4.10;;;;;;;;;;5111716;28;20203;-82
2023/03/29 12:10:32;;;;;;;7.83;4.00;;;;;;;;;;5086127;28;20267;-84
2023/03/29 12:13:00;;;;;;;6.47;3.97;;;;;;;;;;5105517;28;20183;-83
2023/03/29 12:15:30;;;;;;;5.10;3.40;;;;;;;;;;5093313;28;20279;-82
2023/03/29 12:18:07;;;;;;;4.83;3.50;;;;;;;;;;5108803;28;20184;-83
2023/03/29 12:20:35;;;;;;;8.10;4.00;;;;;;;;;;5075817;28;20233;-83
2023/03/29 12:23:01;;;;;;;5.13;3.63;;;;;;;;;;5111909;28;20223;-84
2023/03/29 12:25:34;;;;;;;6.67;3.53;;;;;;;;;;5089737;28;20221;-84
2023/03/29 12:28:13;;;;;;;5.83;3.37;;;;;;;;;;5093247;28;20232;-83
2023/03/29 12:30:52;;;;;;;5.03;3.23;;;;;;;;;;5104576;28;20461;-83
2023/03/29 12:33:26;;;;;;;6.27;3.00;;;;;;;;;;5093612;28;20189;-83
2023/03/29 12:36:11;;;;;;;3.63;2.87;;;;;;;;;;5093555;28;20589;-83
2023/03/29 12:38:37;;;;;;;3.27;2.70;;;;;;;;;;5075933;28;20175;-84
2023/03/29 12:41:10;;;;;;;5.37;3.07;;;;;;;;;;5093176;28;20239;-83
2023/03/29 12:43:42;;;;;;;4.07;3.03;;;;;;;;;;5087714;28;20232;-83
2023/03/29 12:46:18;;;;;;;3.20;2.50;;;;;;;;;;5107769;28;20199;-84
2023/03/29 12:48:46;;;;;;;5.07;3.00;;;;;;;;;;5093552;28;20184;-84
2023/03/29 12:51:17;;;;;;;4.10;2.60;;;;;;;;;;5088640;28;20546;-83
2023/03/29 12:53:45;;;;;;;4.17;2.77;;;;;;;;;;5093295;28;20191;-84
2023/03/29 12:56:17;;;;;;;4.00;2.77;;;;;;;;;;5091567;28;20182;-84
2023/03/29 12:58:51;;;;;;;2.90;2.47;;;;;;;;;;5112737;28;20202;-83
2023/03/29 13:01:23;;;;;;;2.47;2.17;;;;;;;;;;5092258;28;20175;-83
2023/03/29 13:03:51;;;;;;;2.60;2.40;;;;;;;;;;5092584;28;20279;-84
2023/03/29 13:06:36;;;;;;;3.83;2.60;;;;;;;;;;5091380;28;20290;-84
2023/03/29 13:09:20;;;;;;;4.23;2.30;;;;;;;;;;5094414;28;20642;-84
2023/03/29 13:11:53;;;;;;;9.67;5.80;;;;;;;;;;5110819;28;20195;-83
2023/03/29 13:14:20;;;;;;;3.23;2.30;;;;;;;;;;5095420;28;20181;-83
2023/03/29 13:16:47;;;;;;;3.67;2.33;;;;;;;;;;5113606;28;20633;-83
2023/03/29 13:19:16;;;;;;;2.37;2.17;;;;;;;;;;5109115;28;20180;-84
2023/03/29 13:21:52;;;;;;;7.13;2.90;;;;;;;;;;5102300;28;20187;-83
2023/03/29 13:24:25;;;;;;;2.57;2.20;;;;;;;;;;5083360;28;20258;-84
2023/03/29 13:27:03;;;;;;;3.47;2.30;;;;;;;;;;5102492;28;20302;-83
2023/03/29 13:29:33;;;;;;;3.20;2.53;;;;;;;;;;5112937;28;20248;-84
2023/03/29 13:32:16;;;;;;;3.40;2.43;;;;;;;;;;5092685;28;20515;-84
2023/03/29 13:34:42;;;;;;;3.00;2.13;;;;;;;;;;5110466;28;20184;-83
2023/03/29 13:37:24;;;;;;;3.80;2.43;;;;;;;;;;5095260;28;20252;-83
2023/03/29 13:39:51;;;;;;;4.60;2.20;;;;;;;;;;5092501;28;20661;-83
2023/03/29 13:42:20;;;;;;;3.33;2.47;;;;;;;;;;5110626;28;20188;-84
2023/03/29 13:44:48;;;;;;;4.63;2.57;;;;;;;;;;5110929;28;20312;-83
2023/03/29 13:47:32;;;;;;;6.13;4.53;;;;;;;;;;5079799;28;20211;-83
2023/03/29 13:50:24;;;;;;;4.17;2.80;;;;;;;;;;5109310;28;20207;-83
2023/03/29 13:53:05;;;;;;;5.00;2.53;;;;;;;;;;5090201;28;20649;-84
2023/03/29 13:55:33;;;;;;;7.60;2.73;;;;;;;;;;5090721;28;20271;-83
2023/03/29 13:58:08;;;;;;;3.07;2.40;;;;;;;;;;5090134;28;20179;-85
2023/03/29 14:00:39;;;;;;;4.03;2.47;;;;;;;;;;5107274;28;20186;-85
2023/03/29 14:03:07;;;;;;;3.00;2.40;;;;;;;;;;5111923;28;20211;-84
2023/03/29 14:05:37;;;;;;;4.07;2.50;;;;;;;;;;5086931;28;20511;-83
2023/03/29 14:08:23;;;;;;;3.97;3.00;;;;;;;;;;5092650;28;20204;-83
2023/03/29 14:10:50;;;;;;;3.50;2.60;;;;;;;;;;5095985;28;20180;-82
2023/03/29 14:13:21;;;;;;;4.77;2.60;;;;;;;;;;5095406;28;20933;-83
2023/03/29 14:16:01;;;;;;;4.53;2.63;;;;;;;;;;5104283;28;20230;-84
2023/03/29 14:18:29;;;;;;;6.43;2.87;;;;;;;;;;5090639;28;20243;-83
2023/03/29 14:20:55;;;;;;;4.00;3.00;;;;;;;;;;5093373;28;20176;-84
2023/03/29 14:23:26;;;;;;;7.30;3.17;;;;;;;;;;5092772;28;20616;-84
2023/03/29 14:25:52;;;;;;;4.53;2.93;;;;;;;;;;5095282;28;20183;-84
2023/03/29 14:28:23;;;;;;;4.23;2.97;;;;;;;;;;5103831;28;20305;-84
2023/03/29 14:33:54;;;;;;;3.87;3.20;;;;;;;;;;5102749;28;20171;-84
2023/03/29 14:36:21;;;;;;;3.37;3.03;;;;;;;;;;5093188;28;20657;-83
2023/03/29 14:38:49;;;;;;;6.80;3.53;;;;;;;;;;5108136;28;20180;-83
2023/03/29 14:41:16;;;;;;;4.83;3.53;;;;;;;;;;5091456;28;20176;-83
2023/03/29 14:43:43;;;;;;;5.57;3.40;;;;;;;;;;5092209;28;20172;-84
2023/03/29 14:46:09;;;;;;;4.63;3.07;;;;;;;;;;5110383;28;20236;-84
2023/03/29 14:48:35;;;;;;;4.37;3.13;;;;;;;;;;5090976;28;20654;-83
2023/03/29 14:51:02;;;;;;;3.97;3.20;;;;;;;;;;5098188;28;20195;-83
2023/03/29 14:53:31;;;;;;;4.50;3.50;;;;;;;;;;5112073;28;20220;-83